createdAt,value
2023-05-08T00:02:49.652Z,7.22
2023-05-08T00:07:52.295Z,7.21
2023-05-08T00:12:52.982Z,7.06
2023-05-08T00:17:53.777Z,7.01
2023-05-08T00:22:56.741Z,6.95
2023-05-08T00:27:57.396Z,6.85
2023-05-08T00:32:58.111Z,6.81
2023-05-08T00:38:00.218Z,6.76
2023-05-08T00:43:00.891Z,6.65
2023-05-08T00:48:02.198Z,6.58
2023-05-08T00:53:06.355Z,6.45
2023-05-08T00:58:08.091Z,6.47
2023-05-08T01:03:10.193Z,6.35
2023-05-08T01:08:12.262Z,6.32
2023-05-08T01:13:21.400Z,6.24
2023-05-08T01:18:29.648Z,6.12
2023-05-08T01:23:59.475Z,6.11
2023-05-08T01:29:30.758Z,6.01
2023-05-08T01:34:35.197Z,5.95
2023-05-08T01:39:44.444Z,5.89
2023-05-08T01:44:50.194Z,5.85
2023-05-08T01:49:59.880Z,5.76
2023-05-08T01:55:05.160Z,5.72
2023-05-08T02:00:07.957Z,5.71
2023-05-08T02:05:15.117Z,5.64
2023-05-08T02:10:17.478Z,5.63
2023-05-08T02:15:22.108Z,5.66
2023-05-08T02:20:24.180Z,5.67
2023-05-08T02:25:26.668Z,5.68
2023-05-08T02:30:28.284Z,5.66
2023-05-08T02:35:32.133Z,5.61
2023-05-08T02:40:34.001Z,5.57
2023-05-08T02:45:42.206Z,5.47
2023-05-08T02:50:49.523Z,5.36
2023-05-08T02:55:55.624Z,5.24
2023-05-08T03:01:01.575Z,5.18
2023-05-08T03:06:10.176Z,5.08
2023-05-08T03:11:16.968Z,5.02
2023-05-08T03:16:21.943Z,4.97
2023-05-08T03:21:29.157Z,4.97
2023-05-08T03:26:30.274Z,4.93
2023-05-08T03:31:34.095Z,4.93
2023-05-08T03:36:37.201Z,4.91
2023-05-08T03:41:38.065Z,4.90
2023-05-08T03:46:39.862Z,4.93
2023-05-08T03:51:43.221Z,4.91
2023-05-08T03:56:45.955Z,4.95
2023-05-08T04:01:53.103Z,5.00
2023-05-08T04:07:05.115Z,5.02
2023-05-08T04:12:19.117Z,5.85
2023-05-08T04:17:30.107Z,6.12
2023-05-08T04:22:34.005Z,6.13
2023-05-08T04:27:36.420Z,6.22
2023-05-08T04:32:40.259Z,5.87
2023-05-08T04:37:43.874Z,5.92
2023-05-08T04:42:47.416Z,5.97
2023-05-08T04:47:50.382Z,6.12
2023-05-08T04:52:52.577Z,6.22
2023-05-08T04:57:53.703Z,6.37
2023-05-08T05:02:54.686Z,6.47
2023-05-08T05:07:56.871Z,6.67
2023-05-08T05:12:58.777Z,6.82
2023-05-08T05:17:59.705Z,6.94
2023-05-08T05:23:01.839Z,7.14
2023-05-08T05:28:03.092Z,7.29
2023-05-08T05:33:03.975Z,7.48
2023-05-08T05:38:06.956Z,7.60
2023-05-08T05:43:07.874Z,7.74
2023-05-08T05:48:08.896Z,7.79
2023-05-08T05:53:11.342Z,8.21
2023-05-08T05:58:12.081Z,8.19
2023-05-08T06:03:12.958Z,8.31
2023-05-08T06:08:16.514Z,8.42
2023-05-08T06:13:17.236Z,8.54
2023-05-08T06:18:18.163Z,8.65
2023-05-08T06:23:20.570Z,8.85
2023-05-08T06:28:22.543Z,8.97
2023-05-08T06:33:25.456Z,9.14
2023-05-08T06:38:28.696Z,9.27
2023-05-08T06:43:30.585Z,9.46
2023-05-08T06:48:31.209Z,9.71
2023-05-08T06:53:33.205Z,9.83
2023-05-08T06:58:33.928Z,9.99
2023-05-08T07:03:34.979Z,10.12
2023-05-08T07:08:37.432Z,10.21
2023-05-08T07:13:38.252Z,10.37
2023-05-08T07:18:41.541Z,10.38
2023-05-08T07:23:43.519Z,10.66
2023-05-08T07:28:44.171Z,10.81
2023-05-08T07:33:44.952Z,11.10
2023-05-08T07:38:47.149Z,11.29
2023-05-08T07:43:47.807Z,11.71
2023-05-08T07:48:48.942Z,11.96
2023-05-08T07:53:51.212Z,12.26
2023-05-08T07:58:51.997Z,12.33
2023-05-08T08:03:54.340Z,12.39
2023-05-08T08:08:56.443Z,12.25
2023-05-08T08:13:57.282Z,12.45
2023-05-08T08:18:57.971Z,12.60
2023-05-08T08:24:00.155Z,12.77
2023-05-08T08:29:00.793Z,12.85
2023-05-08T08:34:01.642Z,12.95
2023-05-08T08:39:03.849Z,13.07
2023-05-08T08:44:04.753Z,13.28
2023-05-08T08:49:08.731Z,13.52
2023-05-08T08:54:13.320Z,13.68
2023-05-08T08:59:14.525Z,13.97
2023-05-08T09:04:15.350Z,14.01
2023-05-08T09:09:17.508Z,14.14
2023-05-08T09:14:18.207Z,14.19
2023-05-08T09:19:23.389Z,14.45
2023-05-08T09:24:30.151Z,14.67
2023-05-08T09:29:31.826Z,14.73
2023-05-08T09:34:33.408Z,14.97
2023-05-08T09:39:35.713Z,15.39
2023-05-08T09:44:47.169Z,15.60
2023-05-08T09:50:01.198Z,15.76
2023-05-08T09:55:04.601Z,15.97
2023-05-08T10:00:09.035Z,16.16
2023-05-08T10:05:24.980Z,16.32
2023-05-08T10:10:28.499Z,16.41
2023-05-08T10:15:31.645Z,16.32
2023-05-08T10:20:34.131Z,16.18
2023-05-08T10:25:38.037Z,16.32
2023-05-08T10:30:44.158Z,16.51
2023-05-08T10:35:49.190Z,16.84
2023-05-08T10:40:53.439Z,16.94
2023-05-08T10:45:55.745Z,17.07
2023-05-08T10:51:05.011Z,17.03
2023-05-08T10:56:07.505Z,17.24
2023-05-08T11:01:26.721Z,17.37
2023-05-08T11:06:45.871Z,17.66
2023-05-08T11:11:55.910Z,17.89
2023-05-08T11:17:10.929Z,18.12
2023-05-08T11:22:23.617Z,17.83
2023-05-08T11:27:59.555Z,17.73
2023-05-08T11:33:14.316Z,17.90
2023-05-08T11:38:20.029Z,18.21
2023-05-08T11:43:27.018Z,18.63
2023-05-08T11:48:27.781Z,18.86
2023-05-08T11:53:29.237Z,19.02
2023-05-08T11:58:31.958Z,18.81
2023-05-08T12:03:32.790Z,18.61
2023-05-08T12:08:33.959Z,18.32
2023-05-08T12:13:36.044Z,18.43
2023-05-08T12:18:38.508Z,18.76
2023-05-08T12:23:40.494Z,19.18
2023-05-08T12:28:45.681Z,19.69
2023-05-08T12:33:46.663Z,19.38
2023-05-08T12:38:47.392Z,19.38
2023-05-08T12:43:49.784Z,19.65
2023-05-08T12:48:50.437Z,19.90
2023-05-08T12:53:51.624Z,20.10
2023-05-08T12:58:53.589Z,20.14
2023-05-08T13:04:01.499Z,20.12
2023-05-08T13:09:03.161Z,20.35
2023-05-08T13:14:05.176Z,20.33
2023-05-08T13:19:05.800Z,20.21
2023-05-08T13:24:07.076Z,20.09
2023-05-08T13:29:09.269Z,19.84
2023-05-08T13:34:10.032Z,19.53
2023-05-08T13:39:11.227Z,19.74
2023-05-08T13:44:13.234Z,19.89
2023-05-08T13:49:13.873Z,19.75
2023-05-08T13:54:14.541Z,19.72
2023-05-08T13:59:16.626Z,19.95
2023-05-08T14:04:17.384Z,19.91
2023-05-08T14:09:18.147Z,19.72
2023-05-08T14:14:20.234Z,19.47
2023-05-08T14:19:20.940Z,19.58
2023-05-08T14:24:21.655Z,19.84
2023-05-08T14:29:23.701Z,20.09
2023-05-08T14:34:24.462Z,19.73
2023-05-08T14:39:25.110Z,19.88
2023-05-08T14:44:27.159Z,19.94
2023-05-08T14:49:36.664Z,19.42
2023-05-08T14:54:38.797Z,19.47
2023-05-08T14:59:49.036Z,19.78
2023-05-08T15:04:55.240Z,19.82
2023-05-08T15:09:55.917Z,19.77
2023-05-08T15:14:57.934Z,19.70
2023-05-08T15:19:58.611Z,19.99
2023-05-08T15:25:02.470Z,20.17
2023-05-08T15:30:05.217Z,20.22
2023-05-08T15:35:06.864Z,20.07
2023-05-08T15:40:09.963Z,19.77
2023-05-08T15:45:12.684Z,19.82
2023-05-08T15:50:14.528Z,20.07
2023-05-08T15:55:15.615Z,20.47
2023-05-08T16:00:18.793Z,20.28
2023-05-08T16:05:20.099Z,20.08
2023-05-08T16:10:20.984Z,20.04
2023-05-08T16:15:23.102Z,20.22
2023-05-08T16:20:24.049Z,19.91
2023-05-08T16:25:25.333Z,20.67
2023-05-08T16:30:27.385Z,20.60
2023-05-08T16:35:29.492Z,20.84
2023-05-08T16:40:30.356Z,22.16
2023-05-08T16:45:34.419Z,22.39
2023-05-08T16:50:35.383Z,21.92
2023-05-08T16:55:36.013Z,21.71
2023-05-08T17:00:38.099Z,21.66
2023-05-08T17:05:38.903Z,20.83
2023-05-08T17:10:41.323Z,20.68
2023-05-08T17:15:43.304Z,20.70
2023-05-08T17:20:43.930Z,20.78
2023-05-08T17:25:44.632Z,21.39
2023-05-08T17:30:48.112Z,20.00
2023-05-08T17:35:48.920Z,17.77
2023-05-08T17:40:49.683Z,17.09
2023-05-08T17:45:51.719Z,16.59
2023-05-08T17:50:52.393Z,16.35
2023-05-08T17:55:54.113Z,15.90
2023-05-08T18:00:57.038Z,15.77
2023-05-08T18:05:57.780Z,15.44
2023-05-08T18:10:58.429Z,15.15
2023-05-08T18:16:00.427Z,14.96
2023-05-08T18:21:01.209Z,14.74
2023-05-08T18:26:02.115Z,14.56
2023-05-08T18:31:04.184Z,14.27
2023-05-08T18:36:10.563Z,14.17
2023-05-08T18:41:11.716Z,14.02
2023-05-08T18:46:14.702Z,13.78
2023-05-08T18:51:15.488Z,13.58
2023-05-08T18:56:16.205Z,13.48
2023-05-08T19:01:20.146Z,13.24
2023-05-08T19:06:21.034Z,13.19
2023-05-08T19:11:21.890Z,13.00
2023-05-08T19:16:24.413Z,13.01
2023-05-08T19:21:25.098Z,12.85
2023-05-08T19:26:26.413Z,12.77
2023-05-08T19:31:28.446Z,12.67
2023-05-08T19:36:29.130Z,12.63
2023-05-08T19:41:29.826Z,12.44
2023-05-08T19:46:31.862Z,12.49
2023-05-08T19:51:32.744Z,12.23
2023-05-08T19:56:33.398Z,12.20
2023-05-08T20:01:35.511Z,12.20
2023-05-08T20:06:38.235Z,12.06
2023-05-08T20:11:38.954Z,11.96
2023-05-08T20:16:41.837Z,11.91
2023-05-08T20:21:42.598Z,11.87
2023-05-08T20:26:43.322Z,11.69
2023-05-08T20:31:45.335Z,11.53
2023-05-08T20:36:46.190Z,11.47
2023-05-08T20:41:46.804Z,11.43
2023-05-08T20:46:48.810Z,11.32
2023-05-08T20:51:49.454Z,11.24
2023-05-08T20:56:50.166Z,11.08
2023-05-08T21:01:52.438Z,10.99
2023-05-08T21:06:53.084Z,10.79
2023-05-08T21:11:53.717Z,10.74
2023-05-08T21:16:55.932Z,10.65
2023-05-08T21:21:56.689Z,10.63
2023-05-08T21:26:59.503Z,10.55
2023-05-08T21:32:01.555Z,10.59
2023-05-08T21:37:02.340Z,10.58
2023-05-08T21:42:03.200Z,10.54
2023-05-08T21:47:05.443Z,10.51
2023-05-08T21:52:06.087Z,10.40
2023-05-08T21:57:07.540Z,10.39
2023-05-08T22:02:09.803Z,10.26
2023-05-08T22:07:10.698Z,10.20
2023-05-08T22:12:11.361Z,10.17
2023-05-08T22:17:13.356Z,10.06
2023-05-08T22:22:14.072Z,9.89
2023-05-08T22:27:14.724Z,9.90
2023-05-08T22:32:18.049Z,9.83
2023-05-08T22:37:18.689Z,9.72
2023-05-08T22:42:19.665Z,9.64
2023-05-08T22:47:21.747Z,9.60
2023-05-08T22:52:22.503Z,9.61
2023-05-08T22:57:23.156Z,9.60
2023-05-08T23:02:25.189Z,9.57
2023-05-08T23:07:26.074Z,9.50
2023-05-08T23:12:26.738Z,9.40
2023-05-08T23:17:28.737Z,9.38
2023-05-08T23:22:29.611Z,9.26
2023-05-08T23:27:30.430Z,9.21
2023-05-08T23:32:32.546Z,9.21
2023-05-08T23:37:33.231Z,9.26
2023-05-08T23:42:33.918Z,9.23
2023-05-08T23:47:36.371Z,9.25
2023-05-08T23:52:37.078Z,9.17
2023-05-08T23:57:38.033Z,9.15
